Time;durP1;ratioP1;P1;durP2;ratioP2;P2;SDS_P1;SDS_P2;PMS_P1;PMS_P2;Temp;Humidity;BMP_temperature;BMP_pressure;BME280_temperature;BME280_humidity;BME280_pressure;Samples;Min_cycle;Max_cycle;Signal;HPM_P1;HPM_P2
2022/03/28 00:01:57;;;;;;;3.60;1.30;;;;;;;2.17;26.04;101860.27;117298;1186;21850;-48
2022/03/28 00:04:25;;;;;;;8.30;1.60;;;;;;;2.20;25.86;101856.95;117179;1188;22922;-49
2022/03/28 00:06:54;;;;;;;3.50;1.70;;;;;;;2.21;26.17;101859.25;117231;1186;21941;-60
2022/03/28 00:09:22;;;;;;;8.30;1.90;;;;;;;2.23;26.17;101857.58;117274;1187;23446;-48
2022/03/28 00:12:10;;;;;;;4.40;1.80;;;;;;;2.24;26.11;101859.20;117226;1186;21876;-48
2022/03/28 00:14:39;;;;;;;4.20;1.20;;;;;;;2.26;26.25;101859.23;117329;1183;21852;-48
2022/03/28 00:17:07;;;;;;;3.20;1.20;;;;;;;2.27;25.93;101856.70;117319;1184;24156;-49
2022/03/28 00:19:55;;;;;;;4.00;1.40;;;;;;;2.29;26.14;101851.27;117275;1181;21948;-48
2022/03/28 00:22:24;;;;;;;4.20;1.50;;;;;;;2.27;26.06;101846.16;117330;1184;24158;-59
2022/03/28 00:25:12;;;;;;;4.50;1.40;;;;;;;2.22;26.06;101841.27;117306;1185;23620;-47
2022/03/28 00:28:01;;;;;;;3.20;1.50;;;;;;;2.15;26.21;101839.05;117314;1185;22088;-60
2022/03/28 00:30:38;;;;;;;5.70;2.00;;;;;;;2.12;26.09;101831.13;117329;1185;24700;-48
2022/03/28 00:33:07;;;;;;;4.50;1.60;;;;;;;2.07;26.03;101835.73;117356;1184;21858;-58
2022/03/28 00:35:36;;;;;;;7.90;1.60;;;;;;;2.02;26.12;101835.00;117453;1185;23472;-53
2022/03/28 00:38:05;;;;;;;4.20;1.50;;;;;;;1.99;26.16;101825.87;117332;1185;24239;-59
2022/03/28 00:40:33;;;;;;;4.40;1.60;;;;;;;1.98;26.33;101827.52;117376;1185;21844;-47
2022/03/28 00:43:08;;;;;;;4.60;1.60;;;;;;;1.95;26.23;101832.09;117316;1185;21858;-58
2022/03/28 00:45:37;;;;;;;4.70;1.60;;;;;;;1.89;26.05;101838.22;117291;1186;23459;-58
2022/03/28 00:48:06;;;;;;;3.40;1.60;;;;;;;1.81;26.26;101835.56;117326;1184;21849;-47
2022/03/28 00:50:35;;;;;;;5.20;1.90;;;;;;;1.72;26.30;101837.75;117320;1185;21871;-58
2022/03/28 00:53:05;;;;;;;4.30;1.50;;;;;;;1.66;26.23;101839.87;117394;1184;22690;-57
2022/03/28 00:55:35;;;;;;;5.20;1.60;;;;;;;1.61;26.35;101836.53;117325;1185;21851;-59
2022/03/28 00:58:03;;;;;;;4.50;1.70;;;;;;;1.59;26.35;101833.86;117346;1185;22155;-59
2022/03/28 01:00:32;;;;;;;3.50;1.40;;;;;;;1.59;26.16;101829.55;117265;1186;24166;-47
2022/03/28 01:03:01;;;;;;;4.30;2.00;;;;;;;1.61;26.43;101837.55;117373;1185;23470;-48
2022/03/28 01:05:31;;;;;;;6.20;2.00;;;;;;;1.60;26.46;101836.49;117340;1185;22945;-59
2022/03/28 01:08:00;;;;;;;5.80;2.10;;;;;;;1.58;26.23;101830.65;117342;1185;23716;-48
2022/03/28 01:10:30;;;;;;;;;;;;;;;1.56;26.28;101833.02;117339;1184;21870;-59
2022/03/28 01:12:58;;;;;;;10.50;2.20;;;;;;;1.57;26.26;101836.56;117394;1185;21842;-47
2022/03/28 01:15:27;;;;;;;4.80;2.30;;;;;;;1.56;26.49;101834.60;117094;1187;22757;-48
2022/03/28 01:18:11;;;;;;;7.70;2.20;;;;;;;1.51;26.29;101834.86;117328;1185;21852;-48
2022/03/28 01:20:41;;;;;;;4.80;2.10;;;;;;;1.43;26.49;101835.00;117362;1185;21877;-50
2022/03/28 01:23:10;;;;;;;7.80;2.20;;;;;;;1.38;26.38;101839.27;117374;1185;21851;-48
2022/03/28 01:25:39;;;;;;;5.10;2.20;;;;;;;1.37;26.51;101835.92;117368;1185;21884;-49
2022/03/28 01:28:10;;;;;;;7.40;2.20;;;;;;;1.37;26.31;101841.25;117348;1184;23041;-49
2022/03/28 01:30:39;;;;;;;5.60;2.50;;;;;;;1.33;26.44;101841.80;117258;1186;23442;-59
2022/03/28 01:33:08;;;;;;;6.80;2.10;;;;;;;1.30;26.52;101844.59;117328;1182;21863;-60
2022/03/28 01:35:38;;;;;;;4.00;2.00;;;;;;;1.28;26.75;101843.59;117289;1184;24191;-59
2022/03/28 01:38:07;;;;;;;;;;;;;;;1.28;26.79;101847.23;117372;1184;22092;-60
2022/03/28 01:40:37;;;;;;;4.20;1.50;;;;;;;1.27;26.68;101848.79;117364;1184;23127;-48
2022/03/28 01:43:06;;;;;;;5.10;2.10;;;;;;;1.29;26.74;101854.89;117334;1185;21901;-48
2022/03/28 01:45:35;;;;;;;6.10;2.20;;;;;;;1.29;26.71;101859.77;117394;1185;21866;-48
2022/03/28 01:48:04;;;;;;;6.60;2.10;;;;;;;1.25;26.70;101863.90;117313;1185;23452;-48
2022/03/28 01:50:32;;;;;;;10.50;2.70;;;;;;;1.22;26.65;101863.70;117352;1184;22927;-48
2022/03/28 01:53:00;;;;;;;7.00;2.80;;;;;;;1.17;26.65;101858.80;117319;1185;23851;-48
2022/03/28 01:55:29;;;;;;;6.10;2.40;;;;;;;1.12;26.72;101859.77;117359;1184;23471;-60
2022/03/28 01:57:58;;;;;;;7.00;2.70;;;;;;;1.06;27.01;101862.77;117363;1185;24144;-60
2022/03/28 02:00:32;;;;;;;7.30;2.60;;;;;;;0.99;26.72;101866.88;117323;1185;23445;-49
2022/03/28 02:03:00;;;;;;;7.30;2.40;;;;;;;0.91;26.84;101867.18;117495;1184;21864;-49
2022/03/28 02:05:29;;;;;;;6.50;2.40;;;;;;;0.89;26.87;101874.69;117350;1184;24245;-60
2022/03/28 02:07:59;;;;;;;5.70;2.60;;;;;;;0.80;26.83;101871.98;117330;1185;24155;-59
2022/03/28 02:10:28;;;;;;;9.90;3.00;;;;;;;0.68;26.70;101872.25;117318;1185;21861;-60
2022/03/28 02:12:56;;;;;;;5.90;2.20;;;;;;;0.62;26.75;101872.62;117188;1185;21849;-58
2022/03/28 02:15:25;;;;;;;8.00;3.20;;;;;;;0.60;26.58;101872.70;117317;1185;23583;-59
2022/03/28 02:17:53;;;;;;;10.30;3.30;;;;;;;0.56;26.66;101874.40;117328;1185;23554;-48
2022/03/28 02:20:22;;;;;;;8.80;2.80;;;;;;;0.49;26.91;101875.71;117306;1185;21913;-59
2022/03/28 02:22:50;;;;;;;4.80;2.40;;;;;;;0.42;26.97;101877.95;117285;1180;23576;-48
2022/03/28 02:25:19;;;;;;;9.60;3.00;;;;;;;0.37;26.75;101873.03;117285;1185;21912;-48
2022/03/28 02:27:48;;;;;;;7.70;2.70;;;;;;;0.33;27.03;101876.30;117323;1185;23572;-48
2022/03/28 02:30:17;;;;;;;10.40;3.80;;;;;;;0.29;27.11;101883.01;117258;1185;23524;-47
2022/03/28 02:32:45;;;;;;;8.30;3.70;;;;;;;0.30;26.93;101879.22;117374;1185;23544;-48
2022/03/28 02:35:15;;;;;;;9.70;3.30;;;;;;;0.33;27.13;101879.92;117376;1185;23595;-48
2022/03/28 02:37:43;;;;;;;10.70;4.10;;;;;;;0.37;27.31;101884.41;117331;1185;23553;-48
2022/03/28 02:40:13;;;;;;;8.00;2.90;;;;;;;0.38;26.87;101890.73;117338;1185;21876;-59
2022/03/28 02:42:42;;;;;;;14.00;3.80;;;;;;;0.38;27.20;101886.77;117437;1185;22095;-48
2022/03/28 02:45:11;;;;;;;9.10;3.40;;;;;;;0.40;27.09;101884.48;117296;1185;21848;-47
2022/03/28 02:47:40;;;;;;;11.10;3.00;;;;;;;0.43;27.16;101884.77;117321;1185;23573;-59
2022/03/28 02:50:10;;;;;;;8.30;2.90;;;;;;;0.46;27.12;101887.48;117291;1185;23537;-48
2022/03/28 02:52:38;;;;;;;9.20;2.80;;;;;;;0.50;27.19;101883.05;117316;1185;23576;-59
2022/03/28 02:55:07;;;;;;;6.30;2.80;;;;;;;0.55;27.58;101881.75;117322;1185;22823;-59
2022/03/28 02:57:36;;;;;;;12.40;3.40;;;;;;;0.59;27.43;101885.96;117328;1185;21921;-59
2022/03/28 03:00:07;;;;;;;7.00;2.70;;;;;;;0.63;27.32;101882.19;117485;1184;22925;-48
2022/03/28 03:02:40;;;;;;;7.70;2.60;;;;;;;0.63;27.56;101882.02;117298;1187;23448;-49
2022/03/28 03:05:09;;;;;;;7.80;2.80;;;;;;;0.64;27.56;101885.34;117224;1188;21977;-47
2022/03/28 03:07:38;;;;;;;6.50;2.70;;;;;;;0.63;27.37;101882.84;117240;1186;21932;-60
2022/03/28 03:10:07;;;;;;;7.60;2.70;;;;;;;0.61;27.64;101888.80;117343;1185;21890;-58
2022/03/28 03:12:36;;;;;;;5.10;2.20;;;;;;;0.61;27.38;101884.48;117346;1184;22830;-59
2022/03/28 03:15:06;;;;;;;9.20;2.90;;;;;;;0.61;27.49;101881.20;117316;1185;24277;-59
2022/03/28 03:17:36;;;;;;;11.00;2.80;;;;;;;0.61;27.58;101879.83;117318;1185;22918;-47
2022/03/28 03:20:05;;;;;;;6.60;2.50;;;;;;;0.63;27.46;101880.77;117368;1185;22615;-48
2022/03/28 03:22:33;;;;;;;7.10;2.70;;;;;;;0.63;27.63;101880.09;117326;1185;23448;-47
2022/03/28 03:25:03;;;;;;;7.40;2.60;;;;;;;0.62;27.54;101879.72;117330;1185;22645;-60
2022/03/28 03:27:31;;;;;;;7.60;3.00;;;;;;;0.60;27.26;101881.52;117374;1185;21890;-48
2022/03/28 03:29:59;;;;;;;7.50;2.70;;;;;;;0.56;27.61;101884.21;117313;1185;23475;-60
2022/03/28 03:32:29;;;;;;;7.60;3.00;;;;;;;0.54;27.68;101888.08;117354;1185;23448;-59
2022/03/28 03:34:57;;;;;;;16.10;3.80;;;;;;;0.58;28.04;101892.30;117318;1185;24247;-48
2022/03/28 03:37:28;;;;;;;11.00;3.90;;;;;;;0.65;27.88;101892.63;117377;1185;23550;-49
2022/03/28 03:39:56;;;;;;;11.60;3.60;;;;;;;0.66;27.84;101888.20;117287;1185;21893;-49
2022/03/28 03:42:24;;;;;;;18.60;3.60;;;;;;;0.70;28.00;101892.55;117229;1186;24172;-52
2022/03/28 03:44:53;;;;;;;11.30;3.40;;;;;;;0.77;28.15;101895.34;117363;1185;24173;-61
2022/03/28 03:47:22;;;;;;;13.10;3.20;;;;;;;0.84;28.14;101892.58;117330;1185;23468;-48
2022/03/28 03:49:50;;;;;;;8.70;3.10;;;;;;;0.87;28.23;101890.84;117271;1184;23526;-61
2022/03/28 03:52:19;;;;;;;7.50;3.10;;;;;;;0.93;28.38;101892.15;117262;1182;23586;-48
2022/03/28 03:54:47;;;;;;;9.00;3.30;;;;;;;0.96;27.96;101894.24;117336;1185;24226;-48
2022/03/28 03:57:16;;;;;;;6.40;2.80;;;;;;;0.94;28.05;101897.41;117335;1185;23448;-59
2022/03/28 03:59:45;;;;;;;8.70;3.10;;;;;;;0.93;27.96;101898.20;117455;1185;21860;-49
2022/03/28 04:02:15;;;;;;;8.70;3.50;;;;;;;0.91;28.14;101903.30;117327;1185;23471;-60
2022/03/28 04:04:43;;;;;;;7.30;2.90;;;;;;;0.91;28.18;101900.56;117325;1185;23481;-48
2022/03/28 04:07:11;;;;;;;9.30;2.80;;;;;;;0.95;28.20;101901.46;117189;1186;23015;-61
2022/03/28 04:09:41;;;;;;;8.80;2.90;;;;;;;1.03;28.31;101893.58;117178;1186;22322;-61
2022/03/28 04:12:11;;;;;;;8.90;3.10;;;;;;;1.11;28.20;101893.08;117332;1185;21899;-48
2022/03/28 04:14:40;;;;;;;8.90;2.50;;;;;;;1.19;28.36;101894.53;117328;1185;23487;-49
2022/03/28 04:17:29;;;;;;;8.40;2.70;;;;;;;1.27;28.11;101892.16;117273;1185;21964;-62
2022/03/28 04:19:58;;;;;;;8.40;2.90;;;;;;;1.33;28.43;101892.95;117319;1185;24189;-48
2022/03/28 04:22:27;;;;;;;10.00;3.50;;;;;;;1.40;28.53;101893.65;117366;1185;23472;-48
2022/03/28 04:24:55;;;;;;;8.20;3.50;;;;;;;1.48;28.52;101891.45;117306;1185;23475;-61
2022/03/28 04:27:24;;;;;;;9.30;3.20;;;;;;;1.55;28.34;101888.19;117185;1185;24159;-62
2022/03/28 04:29:52;;;;;;;8.30;3.10;;;;;;;1.64;28.70;101881.84;117463;1185;23579;-61
2022/03/28 04:32:22;;;;;;;9.70;3.10;;;;;;;1.72;28.64;101880.15;117338;1189;21896;-60
2022/03/28 04:34:52;;;;;;;10.80;2.90;;;;;;;1.80;28.80;101877.25;117310;1185;22942;-48
2022/03/28 04:37:21;;;;;;;9.50;3.30;;;;;;;1.87;28.82;101876.90;117477;1185;22718;-61
2022/03/28 04:39:53;;;;;;;11.80;3.40;;;;;;;1.95;28.99;101880.38;117042;1188;21914;-61
2022/03/28 04:42:22;;;;;;;7.00;3.10;;;;;;;2.02;28.85;101879.85;117225;1185;23551;-48
2022/03/28 04:44:50;;;;;;;14.20;3.10;;;;;;;2.09;29.00;101881.20;117228;1182;24167;-50
2022/03/28 04:47:19;;;;;;;15.40;4.20;;;;;;;2.17;29.11;101884.71;117347;1185;23465;-48
2022/03/28 04:49:47;;;;;;;9.20;3.40;;;;;;;2.32;29.21;101879.98;117366;1184;22801;-61
2022/03/28 04:52:16;;;;;;;8.30;3.00;;;;;;;2.45;29.16;101881.95;117387;1185;24149;-61
2022/03/28 04:54:45;;;;;;;7.90;3.10;;;;;;;2.56;29.12;101882.63;117403;1185;23484;-61
2022/03/28 04:57:13;;;;;;;12.60;3.20;;;;;;;2.67;29.14;101882.77;117232;1185;24620;-48
2022/03/28 04:59:43;;;;;;;12.40;3.60;;;;;;;2.81;29.27;101887.53;117251;1185;21849;-59
2022/03/28 05:02:12;;;;;;;8.30;3.30;;;;;;;2.94;29.29;101882.56;117378;1185;23464;-48
2022/03/28 05:04:42;;;;;;;7.70;3.10;;;;;;;3.08;29.42;101882.45;117287;1186;23554;-62
2022/03/28 05:07:11;;;;;;;8.60;3.70;;;;;;;3.20;29.28;101883.48;117362;1185;23550;-49
2022/03/28 05:09:40;;;;;;;12.40;3.70;;;;;;;3.30;29.41;101879.56;117283;1182;22722;-61
2022/03/28 05:12:09;;;;;;;7.70;3.10;;;;;;;3.41;29.45;101880.17;117131;1181;24451;-61
2022/03/28 05:14:47;;;;;;;6.90;3.00;;;;;;;3.56;29.39;101873.51;118587;1181;23541;-61
2022/03/28 05:17:15;;;;;;;8.20;3.90;;;;;;;3.70;29.40;101872.84;117210;1182;23012;-48
2022/03/28 05:19:44;;;;;;;9.70;3.20;;;;;;;3.85;29.44;101874.83;117162;1182;21914;-48
2022/03/28 05:22:13;;;;;;;7.20;3.20;;;;;;;4.00;29.48;101870.88;116917;1183;23654;-48
2022/03/28 05:24:43;;;;;;;6.50;3.10;;;;;;;4.18;29.65;101865.47;117215;1182;23567;-49
2022/03/28 05:27:11;;;;;;;6.80;3.00;;;;;;;4.33;29.53;101864.12;117118;1182;23448;-49
2022/03/28 05:29:39;;;;;;;9.60;3.80;;;;;;;4.48;29.44;101864.81;117160;1181;24211;-49
2022/03/28 05:32:09;;;;;;;7.20;3.30;;;;;;;4.62;29.49;101862.38;117165;1182;22928;-61
2022/03/28 05:34:37;;;;;;;8.00;3.40;;;;;;;4.75;29.40;101860.58;116985;1182;21894;-49
2022/03/28 05:37:09;;;;;;;8.90;3.40;;;;;;;4.90;29.57;101861.98;117281;1182;22508;-49
2022/03/28 05:39:39;;;;;;;6.40;2.60;;;;;;;5.06;29.60;101861.80;117123;1181;22933;-48
2022/03/28 05:42:08;;;;;;;7.20;3.30;;;;;;;5.22;29.72;101855.23;116897;1183;24502;-61
2022/03/28 05:44:38;;;;;;;7.60;2.70;;;;;;;5.37;29.70;101848.05;116859;1182;23033;-61
2022/03/28 05:47:06;;;;;;;6.70;2.90;;;;;;;5.52;29.42;101848.54;117097;1186;21853;-49
2022/03/28 05:49:35;;;;;;;6.90;3.00;;;;;;;5.66;29.67;101850.54;117182;1186;21855;-60
2022/03/28 05:52:05;;;;;;;9.40;3.00;;;;;;;5.82;29.66;101849.98;117190;1182;21935;-49
2022/03/28 05:54:34;;;;;;;7.00;2.30;;;;;;;6.01;29.47;101846.90;117329;1185;21852;-49
2022/03/28 05:57:02;;;;;;;8.90;2.80;;;;;;;6.21;29.78;101845.77;116997;1182;23259;-61
2022/03/28 05:59:31;;;;;;;6.40;2.90;;;;;;;6.36;29.71;101847.44;117283;1185;21861;-49
2022/03/28 06:02:00;;;;;;;8.70;3.10;;;;;;;6.54;29.73;101851.75;117364;1185;23435;-49
2022/03/28 06:04:28;;;;;;;6.80;2.90;;;;;;;6.71;29.60;101850.85;117292;1186;23472;-49
2022/03/28 06:06:57;;;;;;;6.90;2.90;;;;;;;6.86;29.53;101847.92;117116;1186;24159;-60
2022/03/28 06:09:26;;;;;;;5.80;2.60;;;;;;;7.02;29.38;101848.34;119305;1185;22198;-50
2022/03/28 06:11:55;;;;;;;4.40;2.20;;;;;;;7.18;29.71;101846.30;117170;1182;23436;-60
2022/03/28 06:14:24;;;;;;;4.80;2.50;;;;;;;7.40;29.66;101836.52;117250;1185;24191;-60
2022/03/28 06:16:53;;;;;;;6.10;2.60;;;;;;;7.60;29.85;101830.87;117246;1186;21853;-50
2022/03/28 06:19:37;;;;;;;8.60;2.40;;;;;;;7.84;29.71;101821.13;117321;1187;23456;-51
2022/03/28 06:22:05;;;;;;;7.40;3.50;;;;;;;8.06;29.32;101821.24;117363;1185;23565;-49
2022/03/28 06:24:35;;;;;;;6.70;2.40;;;;;;;8.30;29.56;101818.05;117351;1185;23542;-60
2022/03/28 06:27:03;;;;;;;6.70;2.30;;;;;;;8.53;29.57;101816.44;117264;1186;23522;-60
2022/03/28 06:29:32;;;;;;;5.40;2.50;;;;;;;8.74;29.51;101813.86;117269;1183;24180;-60
2022/03/28 06:32:01;;;;;;;7.60;2.70;;;;;;;8.91;29.46;101817.99;117237;1181;22296;-60
2022/03/28 06:34:30;;;;;;;8.60;3.40;;;;;;;9.14;29.32;101812.09;117113;1182;23557;-60
2022/03/28 06:36:59;;;;;;;9.50;2.40;;;;;;;9.37;29.38;101811.75;117379;1185;21853;-50
2022/03/28 06:39:27;;;;;;;7.60;3.00;;;;;;;9.56;29.33;101815.90;117357;1185;21853;-49
2022/03/28 06:41:56;;;;;;;15.60;2.80;;;;;;;9.69;29.18;101810.83;117197;1188;23456;-60
2022/03/28 06:44:25;;;;;;;11.40;2.80;;;;;;;9.85;29.23;101811.40;117250;1185;23609;-60
2022/03/28 06:46:53;;;;;;;7.60;2.20;;;;;;;9.98;29.14;101807.36;117293;1185;22937;-60
2022/03/28 06:49:22;;;;;;;7.60;2.50;;;;;;;10.16;29.11;101802.14;117246;1185;21843;-60
2022/03/28 06:51:50;;;;;;;5.00;1.90;;;;;;;10.42;29.16;101802.66;117196;1186;21996;-60
2022/03/28 06:54:19;;;;;;;6.10;1.70;;;;;;;10.67;29.10;101797.13;117268;1186;23573;-49
2022/03/28 06:56:47;;;;;;;4.90;1.90;;;;;;;10.83;29.01;101795.16;117115;1182;21853;-60
2022/03/28 06:59:16;;;;;;;3.50;1.80;;;;;;;10.82;28.71;101794.80;117178;1182;22315;-50
2022/03/28 07:01:48;;;;;;;4.20;1.90;;;;;;;10.81;28.62;101793.41;117075;1182;23445;-50
2022/03/28 07:04:16;;;;;;;5.50;1.50;;;;;;;10.81;28.53;101786.03;117344;1185;23547;-60
2022/03/28 07:06:45;;;;;;;6.60;1.80;;;;;;;10.89;28.56;101786.80;117308;1185;24158;-59
2022/03/28 07:09:13;;;;;;;4.20;2.20;;;;;;;10.97;28.51;101781.96;117206;1186;23449;-50
2022/03/28 07:11:43;;;;;;;5.00;1.80;;;;;;;11.01;28.55;101779.53;117194;1186;22925;-59
2022/03/28 07:14:12;;;;;;;8.90;2.00;;;;;;;11.10;28.39;101778.55;117365;1185;21899;-50
2022/03/28 07:16:42;;;;;;;6.00;2.20;;;;;;;11.23;28.22;101779.70;117114;1186;21839;-50
2022/03/28 07:19:11;;;;;;;4.90;2.00;;;;;;;11.41;28.30;101782.30;117315;1184;23560;-60
2022/03/28 07:21:40;;;;;;;5.90;1.70;;;;;;;11.43;28.19;101786.00;117315;1184;21856;-59
2022/03/28 07:24:09;;;;;;;4.10;1.80;;;;;;;11.42;27.99;101787.57;117306;1181;21906;-50
2022/03/28 07:26:38;;;;;;;6.50;2.20;;;;;;;11.44;28.07;101787.41;117302;1182;21843;-59
2022/03/28 07:29:07;;;;;;;6.20;2.10;;;;;;;11.55;28.13;101785.70;117237;1182;21859;-58
2022/03/28 07:31:39;;;;;;;5.80;2.30;;;;;;;11.61;27.92;101783.29;117310;1182;22927;-59
2022/03/28 07:36:56;;;;;;;7.70;2.10;;;;;;;11.68;27.89;101784.21;117321;1185;22803;-59
2022/03/28 07:39:25;;;;;;;9.30;2.30;;;;;;;11.76;27.83;101783.20;117172;1184;23619;-59
2022/03/28 07:41:53;;;;;;;7.10;2.40;;;;;;;11.79;27.98;101780.57;117208;1185;21851;-49
2022/03/28 07:44:22;;;;;;;5.40;2.50;;;;;;;11.82;27.63;101778.14;117171;1185;23448;-48
2022/03/28 07:46:50;;;;;;;6.50;2.10;;;;;;;11.98;27.88;101773.65;117274;1185;23433;-49
2022/03/28 07:49:19;;;;;;;6.50;2.40;;;;;;;12.14;27.75;101771.25;117321;1185;23475;-58
2022/03/28 07:51:48;;;;;;;7.40;2.80;;;;;;;12.28;27.77;101768.30;117454;1185;23471;-58
2022/03/28 07:54:17;;;;;;;10.40;2.80;;;;;;;12.37;27.75;101764.11;117315;1186;23458;-49
2022/03/28 07:56:46;;;;;;;7.50;2.30;;;;;;;12.58;27.37;101758.88;117319;1185;21849;-50
2022/03/28 07:59:15;;;;;;;6.10;2.60;;;;;;;12.78;27.45;101755.36;117320;1185;22995;-49
2022/03/28 08:01:44;;;;;;;4.70;1.90;;;;;;;13.00;27.56;101748.50;117379;1185;24163;-58
2022/03/28 08:04:13;;;;;;;5.10;2.20;;;;;;;13.17;27.46;101745.50;117364;1185;23484;-60
2022/03/28 08:06:51;;;;;;;5.30;1.90;;;;;;;13.28;27.48;101737.89;117243;1185;24207;-58
2022/03/28 08:09:19;;;;;;;4.60;2.10;;;;;;;13.31;27.11;101739.83;117334;1184;23550;-59
2022/03/28 08:11:49;;;;;;;5.90;2.20;;;;;;;13.41;27.32;101739.46;117343;1184;23847;-59
2022/03/28 08:14:18;;;;;;;6.20;2.30;;;;;;;13.57;27.18;101734.67;117356;1184;23453;-58
2022/03/28 08:16:47;;;;;;;8.50;2.60;;;;;;;13.74;27.22;101735.86;117272;1185;23468;-49
2022/03/28 08:19:15;;;;;;;6.90;2.40;;;;;;;13.83;26.99;101737.06;117360;1185;21858;-59
2022/03/28 08:21:59;;;;;;;5.80;2.40;;;;;;;13.74;26.84;101730.92;117304;1184;21867;-58
2022/03/28 08:24:28;;;;;;;6.80;2.60;;;;;;;13.69;26.17;101729.35;117284;1185;24235;-49
2022/03/28 08:26:57;;;;;;;7.90;2.80;;;;;;;13.66;26.63;101725.66;117335;1185;23537;-49
2022/03/28 08:29:27;;;;;;;5.20;2.80;;;;;;;13.77;26.39;101724.38;117365;1185;22999;-49
2022/03/28 08:31:57;;;;;;;7.90;3.00;;;;;;;13.94;26.20;101714.77;117336;1185;23448;-50
2022/03/28 08:34:26;;;;;;;5.60;2.80;;;;;;;14.04;26.15;101711.20;117277;1182;23554;-49
2022/03/28 08:36:56;;;;;;;6.20;3.20;;;;;;;14.09;26.16;101708.17;117432;1184;23452;-59
2022/03/28 08:39:30;;;;;;;8.30;3.20;;;;;;;14.13;26.29;101709.04;117293;1185;22915;-49
2022/03/28 08:41:59;;;;;;;7.90;2.90;;;;;;;14.21;26.34;101703.69;117336;1185;23551;-59
2022/03/28 08:44:28;;;;;;;11.20;4.00;;;;;;;14.29;26.08;101709.45;117325;1185;23544;-59
2022/03/28 08:46:57;;;;;;;6.30;3.10;;;;;;;14.44;26.24;101703.52;117316;1183;22968;-50
2022/03/28 08:49:26;;;;;;;7.30;3.00;;;;;;;14.70;26.26;101701.76;117045;1188;22960;-50
2022/03/28 08:51:55;;;;;;;7.00;3.20;;;;;;;14.90;25.93;101694.89;117348;1185;21849;-59
2022/03/28 08:54:24;;;;;;;5.80;2.90;;;;;;;15.03;25.96;101694.76;117302;1185;21874;-59
2022/03/28 08:56:53;;;;;;;6.90;2.70;;;;;;;15.08;26.11;101686.58;117339;1185;21852;-50
2022/03/28 08:59:21;;;;;;;4.80;2.30;;;;;;;15.12;26.11;101676.64;117239;1185;23554;-59
2022/03/28 09:01:50;;;;;;;5.10;2.00;;;;;;;15.21;25.93;101671.79;117250;1185;21836;-51
2022/03/28 09:04:19;;;;;;;5.10;1.80;;;;;;;15.38;25.66;101665.73;117327;1184;21887;-59
2022/03/28 09:06:48;;;;;;;4.80;1.50;;;;;;;15.61;25.86;101656.09;117430;1185;23579;-60
2022/03/28 09:09:29;;;;;;;;;;;;;;;15.89;25.98;101659.09;117280;1185;21832;-59
2022/03/28 09:12:05;;;;;;;7.50;2.90;;;;;;;15.96;25.81;101659.55;117336;1185;21848;-50
2022/03/28 09:14:35;;;;;;;6.00;2.10;;;;;;;15.79;25.60;101658.16;117213;1185;23692;-59
2022/03/28 09:17:05;;;;;;;3.30;1.60;;;;;;;15.66;25.62;101652.48;117039;1188;21857;-59
2022/03/28 09:19:59;;;;;;;13.00;6.30;;;;;;;15.63;25.59;101650.05;117101;1186;23043;-59
2022/03/28 09:22:41;;;;;;;6.10;2.30;;;;;;;15.68;25.67;101644.50;117202;1185;23554;-59
2022/03/28 09:25:12;;;;;;;4.80;2.20;;;;;;;15.76;25.33;101640.66;117161;1187;22899;-50
2022/03/28 09:27:41;;;;;;;5.90;3.30;;;;;;;15.87;25.44;101636.30;117169;1182;23476;-59
2022/03/28 09:30:15;;;;;;;8.30;3.20;;;;;;;15.94;25.46;101637.08;117268;1185;22915;-50
2022/03/28 09:32:44;;;;;;;6.40;3.40;;;;;;;16.05;25.38;101628.60;117290;1185;23554;-60
2022/03/28 09:35:20;;;;;;;26.50;16.60;;;;;;;16.19;25.47;101622.55;117230;1182;21843;-51
2022/03/28 09:37:53;;;;;;;128.60;73.80;;;;;;;16.30;25.45;101625.02;117224;1185;23642;-60
2022/03/28 09:40:42;;;;;;;11.50;5.10;;;;;;;16.41;25.42;101616.88;117292;1185;22940;-59
2022/03/28 09:43:21;;;;;;;5.20;2.20;;;;;;;16.45;25.19;101614.86;117294;1185;23041;-51
2022/03/28 09:45:51;;;;;;;5.30;2.40;;;;;;;16.60;25.33;101607.86;119293;1185;21764;-52
2022/03/28 09:48:21;;;;;;;8.00;2.00;;;;;;;16.78;25.19;101598.33;117596;1185;23676;-51
2022/03/28 09:51:01;;;;;;;6.80;2.10;;;;;;;16.92;25.12;101598.25;117359;1185;21859;-60
2022/03/28 09:53:31;;;;;;;6.30;2.30;;;;;;;16.95;25.07;101583.84;117336;1185;22329;-50
2022/03/28 09:56:01;;;;;;;6.90;1.70;;;;;;;17.07;24.92;101574.02;117256;1185;23366;-50
2022/03/28 09:58:48;;;;;;;4.20;2.00;;;;;;;17.33;25.10;101572.80;117198;1186;24708;-59
2022/03/28 10:01:23;;;;;;;7.60;2.70;;;;;;;17.52;25.08;101566.34;117350;1185;23449;-59
2022/03/28 10:03:59;;;;;;;7.30;2.30;;;;;;;17.64;25.10;101560.41;117273;1185;21863;-59
2022/03/28 10:06:29;;;;;;;5.60;2.10;;;;;;;17.71;25.05;101563.62;117355;1185;23566;-51
2022/03/28 10:08:58;;;;;;;5.40;2.00;;;;;;;17.72;24.35;101559.33;117205;1185;23728;-60
2022/03/28 10:11:27;;;;;;;5.00;1.70;;;;;;;17.77;24.56;101546.80;117296;1185;23448;-61
2022/03/28 10:13:56;;;;;;;5.20;1.60;;;;;;;17.89;24.74;101540.30;117205;1186;23552;-50
2022/03/28 10:16:30;;;;;;;5.20;1.40;;;;;;;18.03;24.42;101536.78;117200;1185;22537;-52
2022/03/28 10:18:59;;;;;;;3.90;1.40;;;;;;;18.14;24.16;101535.61;117356;1185;23451;-60
2022/03/28 10:21:37;;;;;;;4.40;1.70;;;;;;;18.26;23.93;101525.02;117119;1184;22925;-51
2022/03/28 10:24:19;;;;;;;4.50;1.70;;;;;;;18.32;24.14;101514.21;117214;1188;21894;-52
2022/03/28 10:26:52;;;;;;;4.90;2.10;;;;;;;18.33;24.23;101517.54;117306;1186;21904;-59
2022/03/28 10:29:24;;;;;;;4.10;2.00;;;;;;;18.46;24.06;101515.77;117173;1186;21853;-61
2022/03/28 10:31:57;;;;;;;3.80;1.50;;;;;;;18.62;23.89;101512.14;117158;1186;23712;-60
2022/03/28 10:34:42;;;;;;;4.60;2.20;;;;;;;18.67;23.78;101507.38;117266;1188;21913;-52
2022/03/28 10:37:36;;;;;;;7.10;1.70;;;;;;;18.63;23.87;101504.83;117201;1186;21987;-52
2022/03/28 10:40:52;;;;;;;4.30;1.90;;;;;;;18.47;23.74;101496.75;117210;1186;21862;-52
2022/03/28 10:43:24;;;;;;;5.20;2.40;;;;;;;18.54;23.86;101497.09;116766;1189;22036;-59
2022/03/28 10:46:00;;;;;;;9.20;2.80;;;;;;;18.54;23.76;101491.22;116878;1189;21855;-60
2022/03/28 10:48:41;;;;;;;4.90;2.20;;;;;;;18.54;23.75;101480.39;117163;1186;22928;-53
2022/03/28 10:51:10;;;;;;;7.90;2.60;;;;;;;18.70;23.86;101473.34;117215;1182;21853;-51
2022/03/28 10:53:46;;;;;;;6.10;3.30;;;;;;;18.70;23.80;101468.01;117120;1186;21856;-51
2022/03/28 10:56:28;;;;;;;7.40;2.50;;;;;;;18.70;23.70;101450.95;116982;1188;21852;-59
2022/03/28 10:58:59;;;;;;;4.40;1.70;;;;;;;18.66;23.69;101455.48;116993;1188;23583;-59
2022/03/28 11:01:38;;;;;;;4.20;1.70;;;;;;;18.58;23.53;101448.45;117240;1185;22919;-51
2022/03/28 11:04:18;;;;;;;7.60;2.30;;;;;;;18.47;23.42;101438.63;118392;1185;21859;-60
2022/03/28 11:07:03;;;;;;;4.20;2.20;;;;;;;18.47;23.55;101438.27;118206;1186;23476;-62
2022/03/28 11:10:02;;;;;;;7.50;2.60;;;;;;;18.56;23.49;101430.73;117266;1186;21902;-51
2022/03/28 11:12:37;;;;;;;6.40;1.80;;;;;;;18.61;23.10;101419.91;117228;1185;22305;-59
2022/03/28 11:15:16;;;;;;;4.50;2.10;;;;;;;18.68;23.41;101412.61;117317;1185;23468;-50
2022/03/28 11:18:07;;;;;;;9.70;3.10;;;;;;;18.63;23.31;101405.45;117286;1185;21846;-59
2022/03/28 11:20:56;;;;;;;5.80;2.40;;;;;;;18.63;23.34;101395.70;117206;1186;21895;-50
2022/03/28 11:23:26;;;;;;;6.00;2.10;;;;;;;18.58;23.09;101386.92;117206;1186;21853;-59
2022/03/28 11:25:55;;;;;;;6.60;2.70;;;;;;;18.63;23.11;101382.53;117153;1186;23449;-50
2022/03/28 11:28:27;;;;;;;9.30;2.90;;;;;;;18.77;23.22;101376.96;117112;1188;21874;-60
2022/03/28 11:30:59;;;;;;;4.80;2.40;;;;;;;18.93;23.18;101374.52;117288;1185;24160;-59
2022/03/28 11:33:29;;;;;;;6.90;2.80;;;;;;;19.13;23.18;101359.88;117322;1185;23635;-58
2022/03/28 11:36:11;;;;;;;6.50;2.30;;;;;;;19.24;23.12;101355.41;117306;1189;21904;-53
2022/03/28 11:38:54;;;;;;;4.40;2.00;;;;;;;19.39;23.11;101362.22;117335;1186;24169;-59
2022/03/28 11:41:27;;;;;;;15.10;2.80;;;;;;;19.34;22.73;101358.45;117273;1182;21862;-58
2022/03/28 11:43:56;;;;;;;4.20;1.90;;;;;;;19.31;22.53;101351.80;117148;1183;21853;-59